Time;durP1;ratioP1;P1;durP2;ratioP2;P2;SDS_P1;SDS_P2;PMS_P1;PMS_P2;Temp;Humidity;BMP_temperature;BMP_pressure;BME280_temperature;BME280_humidity;BME280_pressure;Samples;Min_cycle;Max_cycle;Signal;HPM_P1;HPM_P2
2023/10/20 00:01:12;;;;;;;6.07;5.10;;;15.20;99.90;;;;;;4987349;28;20245;-65
2023/10/20 00:03:38;;;;;;;6.27;5.70;;;15.20;99.90;;;;;;4987341;28;20180;-65
2023/10/20 00:06:04;;;;;;;5.60;5.10;;;15.30;99.90;;;;;;4987674;28;20218;-65
2023/10/20 00:08:31;;;;;;;6.60;5.90;;;15.30;99.90;;;;;;4985636;28;20606;-65
2023/10/20 00:11:04;;;;;;;6.60;5.70;;;15.30;99.90;;;;;;4987694;28;20562;-65
2023/10/20 00:13:29;;;;;;;6.50;5.90;;;15.40;99.90;;;;;;4987920;28;20538;-65
2023/10/20 00:15:56;;;;;;;6.63;6.00;;;15.40;99.90;;;;;;4988333;28;20423;-65
2023/10/20 00:18:22;;;;;;;6.27;5.30;;;15.40;99.90;;;;;;4986430;28;20183;-65
2023/10/20 00:20:48;;;;;;;5.63;5.10;;;15.40;99.90;;;;;;4987995;28;20466;-65
2023/10/20 00:23:16;;;;;;;6.20;5.60;;;15.40;99.90;;;;;;4986425;28;20438;-65
2023/10/20 00:25:43;;;;;;;6.40;5.63;;;15.30;99.90;;;;;;4987374;28;20281;-65
2023/10/20 00:28:09;;;;;;;8.20;6.30;;;15.40;99.90;;;;;;4988765;28;21186;-65
2023/10/20 00:30:35;;;;;;;5.80;5.20;;;15.40;99.90;;;;;;4987996;28;20875;-65
2023/10/20 00:33:01;;;;;;;7.30;6.00;;;15.40;99.90;;;;;;4987818;28;20514;-64
2023/10/20 00:35:27;;;;;;;5.80;5.20;;;15.40;99.90;;;;;;4989125;28;20428;-65
2023/10/20 00:37:53;;;;;;;6.17;5.57;;;15.30;99.90;;;;;;4989569;28;20188;-65
2023/10/20 00:40:22;;;;;;;5.30;4.90;;;15.30;99.90;;;;;;4987791;28;21066;-65
2023/10/20 00:42:47;;;;;;;7.00;6.30;;;15.30;99.90;;;;;;4988455;28;20203;-65
2023/10/20 00:45:13;;;;;;;6.87;5.67;;;15.20;99.90;;;;;;4988600;28;21196;-66
2023/10/20 00:47:39;;;;;;;5.53;5.03;;;15.20;99.90;;;;;;4988735;28;20877;-65
2023/10/20 00:50:11;;;;;;;8.57;6.97;;;15.10;99.90;;;;;;4987034;28;20240;-65
2023/10/20 00:52:37;;;;;;;7.47;6.73;;;15.10;99.90;;;;;;4988431;28;20429;-65
2023/10/20 00:55:07;;;;;;;5.90;5.37;;;15.10;99.90;;;;;;4988778;28;20525;-65
2023/10/20 00:57:34;;;;;;;8.00;7.20;;;15.10;99.90;;;;;;4991174;28;20434;-65
2023/10/20 01:00:00;;;;;;;7.30;6.60;;;15.00;99.90;;;;;;4992173;28;20458;-64
2023/10/20 01:02:25;;;;;;;6.80;6.20;;;15.00;99.90;;;;;;4990477;28;20445;-65
2023/10/20 01:04:51;;;;;;;7.70;7.00;;;15.00;99.90;;;;;;4992969;28;20183;-65
2023/10/20 01:07:17;;;;;;;7.40;6.70;;;15.00;99.90;;;;;;4991155;28;20191;-64
2023/10/20 01:09:43;;;;;;;7.30;6.57;;;15.00;99.90;;;;;;4991605;28;21121;-65
2023/10/20 01:12:09;;;;;;;8.90;6.30;;;14.90;99.90;;;;;;4991541;28;20183;-64
2023/10/20 01:14:35;;;;;;;7.07;6.37;;;15.00;99.90;;;;;;4991618;28;20438;-64
2023/10/20 01:17:01;;;;;;;10.50;7.03;;;14.90;99.90;;;;;;4991459;28;20268;-64
2023/10/20 01:19:27;;;;;;;7.20;6.50;;;14.90;99.90;;;;;;4990475;28;20434;-65
2023/10/20 01:21:53;;;;;;;7.40;6.67;;;14.90;99.90;;;;;;4991691;28;20223;-65
2023/10/20 01:24:19;;;;;;;8.20;7.40;;;14.90;99.90;;;;;;4981961;28;20846;-65
2023/10/20 01:26:44;;;;;;;7.80;6.97;;;14.80;99.90;;;;;;4991421;28;20188;-65
2023/10/20 01:29:12;;;;;;;7.60;6.90;;;14.80;99.90;;;;;;4991374;28;20184;-65
2023/10/20 01:31:38;;;;;;;7.20;6.50;;;14.80;99.90;;;;;;4990919;28;20187;-65
2023/10/20 01:34:05;;;;;;;8.10;7.30;;;14.80;99.90;;;;;;4991356;28;20871;-65
2023/10/20 01:36:30;;;;;;;7.57;6.83;;;14.80;99.90;;;;;;4991199;28;20983;-65
2023/10/20 01:38:56;;;;;;;9.40;8.50;;;14.80;99.90;;;;;;4990564;28;20422;-65
2023/10/20 01:41:23;;;;;;;8.73;7.10;;;14.70;99.90;;;;;;4990462;28;20474;-64
2023/10/20 01:43:48;;;;;;;8.70;7.40;;;14.80;99.90;;;;;;4990983;28;20201;-65
2023/10/20 01:46:14;;;;;;;9.10;8.10;;;14.70;99.90;;;;;;4990779;28;20621;-64
2023/10/20 01:48:39;;;;;;;8.77;7.87;;;14.70;99.90;;;;;;4990910;28;20241;-64
2023/10/20 01:51:05;;;;;;;8.70;7.90;;;14.80;99.90;;;;;;4990588;28;20234;-65
2023/10/20 01:53:31;;;;;;;8.40;7.60;;;14.70;99.90;;;;;;4989386;28;20957;-65
2023/10/20 01:55:56;;;;;;;9.10;7.63;;;14.70;99.90;;;;;;4990844;28;20241;-65
2023/10/20 01:58:22;;;;;;;7.53;6.70;;;14.70;99.90;;;;;;4989893;28;20693;-65
2023/10/20 02:00:49;;;;;;;8.13;7.20;;;14.70;99.90;;;;;;4990915;28;20763;-65
2023/10/20 02:03:15;;;;;;;9.60;8.47;;;14.70;99.90;;;;;;4990146;28;20211;-64
2023/10/20 02:05:40;;;;;;;9.60;7.90;;;14.70;99.90;;;;;;4991355;28;20442;-65
2023/10/20 02:08:08;;;;;;;10.03;8.40;;;14.70;99.90;;;;;;4989823;28;20422;-64
2023/10/20 02:10:34;;;;;;;9.77;8.77;;;14.70;99.90;;;;;;4989590;28;21001;-65
2023/10/20 02:13:01;;;;;;;10.60;8.67;;;14.60;99.90;;;;;;4990773;28;20422;-65
2023/10/20 02:15:26;;;;;;;11.97;9.63;;;14.60;99.90;;;;;;4989268;28;20432;-65
2023/10/20 02:17:52;;;;;;;10.43;9.40;;;14.50;99.90;;;;;;4991582;28;20431;-65
2023/10/20 02:20:21;;;;;;;15.13;9.53;;;14.50;99.90;;;;;;4988650;28;20631;-65
2023/10/20 02:22:52;;;;;;;9.93;8.80;;;14.50;99.90;;;;;;4989228;28;20967;-64
2023/10/20 02:25:18;;;;;;;11.23;9.90;;;14.50;99.90;;;;;;4989376;28;20445;-65
2023/10/20 02:27:45;;;;;;;8.87;8.07;;;14.50;99.90;;;;;;4990609;28;20439;-65
2023/10/20 02:30:13;;;;;;;13.33;9.80;;;14.50;99.90;;;;;;4990460;28;20422;-65
2023/10/20 02:32:39;;;;;;;9.03;8.23;;;14.40;99.90;;;;;;4989125;28;20950;-65
2023/10/20 02:35:06;;;;;;;9.47;8.47;;;14.40;99.90;;;;;;4990373;28;20431;-64
2023/10/20 02:37:32;;;;;;;9.40;8.00;;;14.40;99.90;;;;;;4988370;28;20957;-63
2023/10/20 02:39:57;;;;;;;10.90;9.80;;;14.40;99.90;;;;;;4989891;28;20430;-64
2023/10/20 02:42:23;;;;;;;9.93;8.73;;;14.40;99.90;;;;;;4987140;28;20677;-63
2023/10/20 02:44:49;;;;;;;10.93;9.83;;;14.50;99.90;;;;;;4990473;28;20198;-66
2023/10/20 02:47:15;;;;;;;10.40;9.30;;;14.50;99.90;;;;;;4990080;28;20763;-64
2023/10/20 02:49:41;;;;;;;10.03;9.03;;;14.50;99.90;;;;;;4988513;28;20510;-65
2023/10/20 02:52:07;;;;;;;10.90;9.80;;;14.50;99.90;;;;;;4988747;28;20191;-65
2023/10/20 02:54:34;;;;;;;11.37;10.20;;;14.50;99.90;;;;;;4988827;28;20415;-64
2023/10/20 02:57:00;;;;;;;10.17;9.17;;;14.50;99.90;;;;;;4990015;28;20183;-64
2023/10/20 02:59:26;;;;;;;11.10;9.23;;;14.60;99.90;;;;;;4986509;28;21205;-64
2023/10/20 03:01:54;;;;;;;11.27;9.97;;;14.60;99.90;;;;;;4989593;28;20504;-64
2023/10/20 03:04:19;;;;;;;10.93;9.83;;;14.50;99.90;;;;;;4989370;28;20195;-64
2023/10/20 03:06:46;;;;;;;11.03;10.00;;;14.60;99.90;;;;;;4989415;28;20430;-64
2023/10/20 03:09:13;;;;;;;12.83;10.00;;;14.50;99.90;;;;;;4990205;28;20191;-65
2023/10/20 03:11:39;;;;;;;11.77;10.57;;;14.50;99.90;;;;;;4989256;28;20442;-64
2023/10/20 03:14:05;;;;;;;11.67;10.47;;;14.60;99.90;;;;;;4989909;28;20451;-64
2023/10/20 03:16:31;;;;;;;11.20;10.10;;;14.60;99.90;;;;;;4989112;28;20894;-64
2023/10/20 03:18:57;;;;;;;11.03;9.90;;;14.60;99.90;;;;;;4989910;28;21279;-65
2023/10/20 03:21:23;;;;;;;10.47;9.43;;;14.60;99.90;;;;;;4989502;28;21013;-64
2023/10/20 03:23:49;;;;;;;12.40;9.90;;;14.60;99.90;;;;;;4989169;28;20183;-65
2023/10/20 03:26:15;;;;;;;12.27;11.00;;;14.60;99.90;;;;;;4990541;28;20458;-64
2023/10/20 03:28:40;;;;;;;14.80;9.83;;;14.60;99.90;;;;;;4988462;28;20430;-64
2023/10/20 03:31:07;;;;;;;12.63;10.93;;;14.60;99.90;;;;;;4990298;28;21128;-64
2023/10/20 03:33:32;;;;;;;15.33;11.73;;;14.60;99.90;;;;;;4987981;28;20249;-64
2023/10/20 03:36:03;;;;;;;12.53;10.30;;;14.60;99.90;;;;;;4989316;28;20434;-64
2023/10/20 03:38:29;;;;;;;14.37;10.67;;;14.50;99.90;;;;;;4988862;28;20187;-63
2023/10/20 03:41:05;;;;;;;12.37;11.10;;;14.50;99.90;;;;;;4989266;28;20482;-64
2023/10/20 03:43:31;;;;;;;15.20;11.30;;;14.50;99.90;;;;;;4989133;28;20483;-64
2023/10/20 03:45:59;;;;;;;11.33;10.23;;;14.50;99.90;;;;;;4989301;28;20541;-64
2023/10/20 03:48:27;;;;;;;10.73;9.67;;;14.60;99.90;;;;;;4988801;28;20459;-64
2023/10/20 03:50:53;;;;;;;13.53;12.13;;;14.60;99.90;;;;;;4988103;28;20435;-64
2023/10/20 03:53:22;;;;;;;12.60;11.30;;;14.50;99.90;;;;;;4989460;28;20434;-64
2023/10/20 03:56:01;;;;;;;11.87;10.30;;;14.50;99.90;;;;;;4987729;28;20422;-65
2023/10/20 03:58:31;;;;;;;12.60;11.30;;;14.50;99.90;;;;;;4988174;28;20493;-64
2023/10/20 04:00:57;;;;;;;15.00;11.43;;;14.50;99.90;;;;;;4988860;28;20581;-64
2023/10/20 04:03:25;;;;;;;10.90;9.90;;;14.50;99.90;;;;;;4987785;28;20853;-64
2023/10/20 04:05:51;;;;;;;11.57;10.07;;;14.50;99.90;;;;;;4988628;28;20461;-64
2023/10/20 04:08:21;;;;;;;11.67;10.57;;;14.50;99.90;;;;;;4988266;28;20423;-64
2023/10/20 04:10:46;;;;;;;12.33;10.90;;;14.50;99.90;;;;;;4988088;28;20434;-64
2023/10/20 04:13:13;;;;;;;14.67;11.13;;;14.50;99.90;;;;;;4989406;28;20427;-64
2023/10/20 04:15:39;;;;;;;12.70;11.23;;;14.50;99.90;;;;;;4987798;28;20189;-64
2023/10/20 04:18:05;;;;;;;14.53;11.73;;;14.50;99.90;;;;;;4989007;28;20446;-65
2023/10/20 04:20:37;;;;;;;14.53;10.50;;;14.50;99.90;;;;;;4987952;28;21066;-64
2023/10/20 04:23:04;;;;;;;13.20;10.93;;;14.40;99.90;;;;;;4987426;28;20431;-64
2023/10/20 04:25:33;;;;;;;17.50;11.93;;;14.50;99.90;;;;;;4988186;28;20446;-65
2023/10/20 04:28:11;;;;;;;13.10;11.33;;;14.50;99.90;;;;;;4987640;28;20418;-65
2023/10/20 04:44:58;;;;;;;15.40;12.73;;;14.50;99.90;;;;;;4991729;28;20449;-64
2023/10/20 05:02:46;;;;;;;15.53;13.20;;;14.50;99.90;;;;;;4989710;28;20451;-65
2023/10/20 05:07:54;;;;;;;14.03;12.43;;;14.50;99.90;;;;;;4988803;28;20441;-63
2023/10/20 05:10:21;;;;;;;15.03;13.33;;;14.40;99.90;;;;;;4990198;28;21003;-64
2023/10/20 05:12:47;;;;;;;18.10;14.40;;;14.40;99.90;;;;;;4990986;28;20442;-64
2023/10/20 05:15:13;;;;;;;16.73;14.97;;;14.50;99.90;;;;;;4981989;28;20505;-63
2023/10/20 05:17:40;;;;;;;17.30;14.50;;;14.50;99.90;;;;;;4988740;28;20426;-63
2023/10/20 05:20:08;;;;;;;17.63;14.87;;;14.50;99.90;;;;;;4989410;28;20438;-64
2023/10/20 05:22:34;;;;;;;17.17;13.90;;;14.50;99.90;;;;;;4989864;28;20438;-64
2023/10/20 05:25:00;;;;;;;17.10;14.30;;;14.50;99.90;;;;;;4990243;28;20496;-64
2023/10/20 05:27:25;;;;;;;20.40;14.00;;;14.50;99.90;;;;;;4990119;28;20183;-64
2023/10/20 05:29:52;;;;;;;15.47;13.87;;;14.50;99.90;;;;;;4991861;28;20275;-64
2023/10/20 05:32:17;;;;;;;15.73;13.80;;;14.50;99.90;;;;;;4984972;28;20198;-64
2023/10/20 05:34:43;;;;;;;16.07;13.70;;;14.50;99.90;;;;;;4990075;28;20462;-64
2023/10/20 05:37:10;;;;;;;15.77;12.87;;;14.50;99.90;;;;;;4989512;28;20210;-64
2023/10/20 05:39:35;;;;;;;13.83;11.50;;;14.60;99.90;;;;;;4990830;28;20926;-64
2023/10/20 05:42:04;;;;;;;17.53;13.13;;;14.50;99.90;;;;;;4987634;28;20482;-64
2023/10/20 05:44:33;;;;;;;16.83;13.00;;;14.50;99.90;;;;;;4988467;28;20293;-64
2023/10/20 05:46:59;;;;;;;14.90;12.50;;;14.60;99.90;;;;;;4989561;28;20436;-64
2023/10/20 05:49:26;;;;;;;14.43;12.83;;;14.60;99.90;;;;;;4966916;28;20438;-64
2023/10/20 05:51:52;;;;;;;14.17;12.63;;;14.60;99.90;;;;;;4984837;28;20478;-64
2023/10/20 05:54:18;;;;;;;14.07;12.50;;;14.60;99.90;;;;;;4986432;28;21167;-64
2023/10/20 05:56:44;;;;;;;13.47;12.07;;;14.60;99.90;;;;;;4987634;28;20226;-64
2023/10/20 05:59:10;;;;;;;13.97;11.77;;;14.60;99.90;;;;;;4987244;28;21079;-64
2023/10/20 06:01:35;;;;;;;13.80;11.30;;;14.60;99.90;;;;;;4986538;28;20671;-64
2023/10/20 06:04:03;;;;;;;13.13;11.73;;;14.60;99.90;;;;;;4989072;28;20191;-63
2023/10/20 06:06:31;;;;;;;15.33;12.07;;;14.60;99.90;;;;;;4985727;28;20190;-64
2023/10/20 06:08:57;;;;;;;13.93;12.07;;;14.60;99.90;;;;;;4987731;28;20489;-64
2023/10/20 06:11:22;;;;;;;13.50;12.13;;;14.60;99.90;;;;;;4988242;28;20438;-64
2023/10/20 06:13:49;;;;;;;13.30;12.00;;;14.60;99.90;;;;;;4989282;28;20182;-64
2023/10/20 06:16:15;;;;;;;13.00;11.50;;;14.60;99.90;;;;;;4987483;28;20204;-64
2023/10/20 06:18:42;;;;;;;14.00;12.10;;;14.60;99.90;;;;;;4984271;28;20792;-64
2023/10/20 06:21:15;;;;;;;12.70;11.10;;;14.60;99.90;;;;;;4985331;28;20226;-64
2023/10/20 06:23:41;;;;;;;14.83;13.27;;;14.60;99.90;;;;;;4986810;28;20647;-64
2023/10/20 06:26:06;;;;;;;13.37;11.97;;;14.60;99.90;;;;;;4987552;28;20911;-64
2023/10/20 06:28:32;;;;;;;13.97;11.73;;;14.60;99.90;;;;;;4987436;28;20549;-64
2023/10/20 06:31:14;;;;;;;14.80;12.33;;;14.60;99.90;;;;;;4987518;28;20234;-64
2023/10/20 06:33:43;;;;;;;15.83;12.00;;;14.60;99.90;;;;;;4988229;28;20241;-64
2023/10/20 06:36:14;;;;;;;13.87;12.47;;;14.60;99.90;;;;;;4988717;28;20453;-64
2023/10/20 06:41:08;;;;;;;14.73;13.13;;;14.50;99.90;;;;;;4988654;28;21319;-64
2023/10/20 06:43:34;;;;;;;15.30;12.30;;;14.50;99.90;;;;;;4987847;28;20538;-64
2023/10/20 06:46:00;;;;;;;15.03;13.27;;;14.50;99.90;;;;;;4989240;28;20445;-64
2023/10/20 06:48:28;;;;;;;13.40;12.00;;;14.50;99.90;;;;;;4987726;28;20191;-64
2023/10/20 06:50:53;;;;;;;15.23;13.30;;;14.50;99.90;;;;;;4990136;28;20430;-64
2023/10/20 06:53:19;;;;;;;15.30;13.07;;;14.50;99.90;;;;;;4988095;28;20461;-64
2023/10/20 06:55:51;;;;;;;13.23;11.83;;;14.50;99.90;;;;;;4989326;28;20275;-64
2023/10/20 06:58:17;;;;;;;13.97;12.43;;;14.50;99.90;;;;;;4987546;28;21074;-65
2023/10/20 07:00:44;;;;;;;13.47;11.60;;;14.50;99.90;;;;;;4988890;28;20478;-64
2023/10/20 07:03:11;;;;;;;12.90;11.50;;;14.50;99.90;;;;;;4988590;28;20574;-63
2023/10/20 07:05:37;;;;;;;13.43;12.00;;;14.50;99.90;;;;;;4987821;28;21261;-63
2023/10/20 07:08:05;;;;;;;13.70;12.00;;;14.40;99.90;;;;;;4990189;28;20453;-64
2023/10/20 07:10:37;;;;;;;13.47;12.07;;;14.40;99.90;;;;;;4987383;28;20442;-65
2023/10/20 07:13:06;;;;;;;13.83;11.90;;;14.40;99.90;;;;;;4989574;28;20443;-65
2023/10/20 07:15:37;;;;;;;14.53;11.90;;;14.40;99.90;;;;;;4988568;28;20505;-65
2023/10/20 07:18:03;;;;;;;12.80;11.40;;;14.40;99.90;;;;;;4989559;28;20442;-65
2023/10/20 07:20:33;;;;;;;12.37;10.93;;;14.40;99.90;;;;;;4987861;28;20470;-65
2023/10/20 07:22:59;;;;;;;12.10;10.80;;;14.40;99.90;;;;;;4988550;28;20498;-64
2023/10/20 07:25:26;;;;;;;10.80;9.53;;;14.30;99.90;;;;;;4988695;28;20550;-65
2023/10/20 07:27:53;;;;;;;11.37;10.17;;;14.30;99.90;;;;;;4989389;28;20434;-65
2023/10/20 07:30:19;;;;;;;10.40;9.27;;;14.40;99.90;;;;;;4986812;28;20470;-65
2023/10/20 07:32:46;;;;;;;13.00;9.37;;;14.30;99.90;;;;;;4988032;28;20470;-65
2023/10/20 07:35:12;;;;;;;10.70;9.60;;;14.40;99.90;;;;;;4989703;28;20977;-65
2023/10/20 07:37:38;;;;;;;9.80;8.80;;;14.40;99.90;;;;;;4988511;28;20429;-65
2023/10/20 07:40:06;;;;;;;9.63;8.63;;;14.30;99.90;;;;;;4988907;28;21216;-65
2023/10/20 07:42:32;;;;;;;8.80;7.90;;;14.30;99.90;;;;;;4987920;28;20449;-65
2023/10/20 07:44:59;;;;;;;8.40;7.20;;;14.30;99.90;;;;;;4989103;28;20426;-66
2023/10/20 07:47:24;;;;;;;9.10;8.10;;;14.30;99.90;;;;;;4987338;28;20195;-65
2023/10/20 07:49:51;;;;;;;8.33;7.53;;;14.40;99.90;;;;;;4988512;28;20426;-65
2023/10/20 07:52:17;;;;;;;9.50;7.43;;;14.30;99.90;;;;;;4988799;28;20323;-65
2023/10/20 07:54:43;;;;;;;7.50;6.80;;;14.30;99.90;;;;;;4989467;28;20419;-65
2023/10/20 07:57:10;;;;;;;7.27;6.67;;;14.30;99.90;;;;;;4989025;28;20442;-65
2023/10/20 07:59:36;;;;;;;7.07;6.33;;;14.30;99.90;;;;;;4986745;28;20439;-65
2023/10/20 08:02:05;;;;;;;7.90;7.10;;;14.30;99.90;;;;;;4986154;28;21419;-65
2023/10/20 08:04:34;;;;;;;7.97;7.17;;;14.30;99.90;;;;;;4987676;28;20448;-65
2023/10/20 08:06:59;;;;;;;7.23;6.53;;;14.30;99.90;;;;;;4988024;28;20426;-65
2023/10/20 08:09:28;;;;;;;7.00;5.70;;;14.30;99.90;;;;;;4987931;28;20988;-64
2023/10/20 08:11:56;;;;;;;7.27;5.23;;;14.30;99.90;;;;;;4988085;28;20187;-65
2023/10/20 08:14:25;;;;;;;6.30;5.70;;;14.30;99.90;;;;;;4978970;28;20472;-65
2023/10/20 08:16:51;;;;;;;6.67;6.07;;;14.30;99.90;;;;;;4988681;28;20474;-65
2023/10/20 08:19:16;;;;;;;6.37;5.77;;;14.30;99.90;;;;;;4987613;28;20540;-65
2023/10/20 08:21:43;;;;;;;6.73;5.93;;;14.30;99.90;;;;;;4988197;28;20273;-65
2023/10/20 08:24:10;;;;;;;5.80;5.20;;;14.30;99.90;;;;;;4988343;28;20354;-65
2023/10/20 08:26:36;;;;;;;5.60;5.10;;;14.20;99.90;;;;;;4987406;28;20493;-65
2023/10/20 08:29:06;;;;;;;5.40;4.87;;;14.20;99.90;;;;;;4988065;28;20511;-65
2023/10/20 08:31:32;;;;;;;5.37;4.87;;;14.30;99.90;;;;;;4987476;28;20469;-65
2023/10/20 08:33:58;;;;;;;6.43;5.10;;;14.20;99.90;;;;;;4988619;28;20439;-65
2023/10/20 08:36:24;;;;;;;4.60;4.20;;;14.20;99.90;;;;;;4988874;28;20438;-65
2023/10/20 08:38:51;;;;;;;4.90;4.50;;;14.20;99.90;;;;;;4987205;28;20884;-66
2023/10/20 08:41:21;;;;;;;4.47;4.07;;;14.30;99.90;;;;;;4986887;28;20936;-65
2023/10/20 08:43:48;;;;;;;4.57;4.17;;;14.20;99.90;;;;;;4986714;28;21037;-65
2023/10/20 08:46:18;;;;;;;4.33;3.93;;;14.20;99.90;;;;;;4988315;28;20902;-65
2023/10/20 08:48:46;;;;;;;4.90;4.50;;;14.20;99.90;;;;;;4987062;28;20557;-65
2023/10/20 08:51:15;;;;;;;4.47;4.07;;;14.20;99.90;;;;;;4988460;28;20438;-65
2023/10/20 08:53:44;;;;;;;5.20;4.70;;;14.20;99.90;;;;;;4987305;28;20442;-65
2023/10/20 08:56:11;;;;;;;4.37;3.97;;;14.20;99.90;;;;;;4989270;28;20445;-65
2023/10/20 08:58:38;;;;;;;5.30;4.57;;;14.20;99.90;;;;;;4986209;28;20814;-65
2023/10/20 09:01:05;;;;;;;4.63;4.20;;;14.30;99.90;;;;;;4987364;28;20477;-65
2023/10/20 09:03:43;;;;;;;5.10;4.60;;;14.20;99.90;;;;;;4987877;28;20445;-65
2023/10/20 09:06:12;;;;;;;4.80;4.33;;;14.30;99.90;;;;;;4994736;28;20437;-65
2023/10/20 09:08:38;;;;;;;4.33;3.93;;;14.30;99.90;;;;;;4971410;28;20433;-65
2023/10/20 09:11:08;;;;;;;4.80;4.40;;;14.30;99.90;;;;;;4987726;28;20441;-65
2023/10/20 09:13:36;;;;;;;5.10;4.60;;;14.30;99.90;;;;;;4987500;28;20610;-64
2023/10/20 09:22:46;;;;;;;4.40;4.00;;;14.30;99.90;;;;;;4989115;28;20944;-65
2023/10/20 09:32:31;;;;;;;4.73;4.33;;;14.20;99.90;;;;;;4991017;28;20430;-65
2023/10/20 09:34:57;;;;;;;4.80;4.40;;;14.20;99.90;;;;;;4988820;28;20474;-65
2023/10/20 09:37:30;;;;;;;5.00;4.30;;;14.20;99.90;;;;;;4991078;28;20435;-65
2023/10/20 09:40:15;;;;;;;4.23;3.90;;;14.20;99.90;;;;;;4990427;28;20438;-65
2023/10/20 09:43:22;;;;;;;5.10;4.60;;;14.20;99.90;;;;;;4983193;28;20515;-65
2023/10/20 09:45:56;;;;;;;4.70;4.30;;;14.20;99.90;;;;;;4990635;28;20887;-65
2023/10/20 09:48:24;;;;;;;5.27;4.60;;;14.20;99.90;;;;;;4991611;28;20430;-65
2023/10/20 09:50:51;;;;;;;5.33;4.40;;;14.20;99.90;;;;;;4992079;28;21062;-65
2023/10/20 09:53:18;;;;;;;4.33;4.03;;;14.20;99.90;;;;;;4989781;28;20446;-65
2023/10/20 09:55:45;;;;;;;4.30;3.90;;;14.20;99.90;;;;;;4991813;28;20533;-65
2023/10/20 09:58:12;;;;;;;4.13;3.73;;;14.30;99.90;;;;;;4990706;28;20473;-65
2023/10/20 10:00:42;;;;;;;4.57;4.17;;;14.20;99.90;;;;;;4992316;28;20556;-65
2023/10/20 10:03:08;;;;;;;3.80;3.50;;;14.20;99.90;;;;;;4988643;28;20557;-65
2023/10/20 10:05:37;;;;;;;4.30;4.00;;;14.10;99.90;;;;;;4992089;28;20863;-65
2023/10/20 10:08:08;;;;;;;4.00;3.53;;;14.20;99.90;;;;;;4990998;28;20464;-65
2023/10/20 10:10:35;;;;;;;5.43;3.90;;;14.10;99.90;;;;;;4990652;28;20427;-65
2023/10/20 10:13:04;;;;;;;4.20;3.90;;;14.10;99.90;;;;;;4989920;28;20457;-65
2023/10/20 10:15:41;;;;;;;4.10;3.70;;;14.20;99.90;;;;;;4991472;28;20440;-65
2023/10/20 10:18:12;;;;;;;4.23;3.83;;;14.10;99.90;;;;;;4990408;28;21043;-65
2023/10/20 10:20:48;;;;;;;4.50;4.10;;;14.20;99.90;;;;;;4990498;28;21108;-65
2023/10/20 10:23:15;;;;;;;4.70;4.20;;;14.10;99.90;;;;;;4989412;28;20481;-64
2023/10/20 10:25:45;;;;;;;4.13;3.83;;;14.10;99.90;;;;;;4990674;28;20532;-65
2023/10/20 10:28:13;;;;;;;5.13;4.50;;;14.10;99.90;;;;;;4990056;28;20473;-64
2023/10/20 10:30:40;;;;;;;4.33;3.97;;;14.20;99.90;;;;;;4991109;28;20430;-65
2023/10/20 10:33:08;;;;;;;3.83;3.47;;;14.10;99.90;;;;;;4989523;28;20534;-65
2023/10/20 10:35:36;;;;;;;4.30;3.90;;;14.10;99.90;;;;;;4990560;28;20525;-65
2023/10/20 10:38:03;;;;;;;4.50;4.10;;;14.20;99.90;;;;;;4990803;28;20529;-65
2023/10/20 10:40:29;;;;;;;4.13;3.83;;;14.10;99.90;;;;;;4990559;28;20493;-64
2023/10/20 10:42:57;;;;;;;5.03;4.47;;;14.10;99.90;;;;;;4990681;28;20549;-65
2023/10/20 10:45:27;;;;;;;4.47;4.07;;;14.10;99.90;;;;;;4990027;28;20963;-64
2023/10/20 10:48:29;;;;;;;4.63;4.17;;;14.10;99.90;;;;;;4991066;28;20568;-65
2023/10/20 10:50:55;;;;;;;4.40;4.00;;;14.10;99.90;;;;;;4976862;28;20434;-65
2023/10/20 10:53:21;;;;;;;4.20;3.90;;;14.10;99.90;;;;;;4989460;28;20469;-64
2023/10/20 10:55:47;;;;;;;3.97;3.57;;;14.10;99.90;;;;;;4990578;28;20435;-65
2023/10/20 10:58:14;;;;;;;4.93;4.43;;;14.00;99.90;;;;;;4990562;28;20434;-64
2023/10/20 11:00:41;;;;;;;3.97;3.67;;;14.10;99.90;;;;;;4990479;28;20222;-65
2023/10/20 11:03:09;;;;;;;4.87;4.47;;;14.10;99.90;;;;;;4988530;28;20439;-65
2023/10/20 11:05:35;;;;;;;4.10;3.80;;;14.10;99.90;;;;;;4990367;28;21070;-64
2023/10/20 11:08:03;;;;;;;3.73;3.03;;;14.10;99.90;;;;;;4990655;28;20781;-65
2023/10/20 11:10:31;;;;;;;4.33;3.83;;;14.00;99.90;;;;;;4989471;28;20454;-64
2023/10/20 11:12:58;;;;;;;4.20;3.90;;;14.00;99.90;;;;;;4988339;28;20442;-65
2023/10/20 11:15:30;;;;;;;4.63;4.23;;;14.00;99.90;;;;;;4990099;28;20430;-64
2023/10/20 11:18:04;;;;;;;4.30;4.00;;;14.00;99.90;;;;;;4990739;28;20480;-65
2023/10/20 11:20:37;;;;;;;4.37;3.97;;;13.90;99.90;;;;;;4989948;28;20471;-64
2023/10/20 11:23:05;;;;;;;4.63;4.23;;;13.90;99.90;;;;;;4988865;28;20805;-65
2023/10/20 11:25:31;;;;;;;3.90;3.60;;;14.00;99.90;;;;;;4990043;28;20987;-64
2023/10/20 11:27:57;;;;;;;4.30;4.00;;;14.00;99.90;;;;;;4990772;28;20427;-65
2023/10/20 11:30:32;;;;;;;4.03;3.73;;;14.00;99.90;;;;;;4989159;28;20201;-64
2023/10/20 11:32:58;;;;;;;3.13;2.93;;;14.00;99.90;;;;;;4988692;28;20437;-64
2023/10/20 11:35:25;;;;;;;4.20;3.80;;;14.00;99.90;;;;;;4990281;28;21043;-64
2023/10/20 11:37:54;;;;;;;4.33;3.87;;;14.00;99.90;;;;;;4989557;28;20676;-64
2023/10/20 11:40:20;;;;;;;3.90;3.60;;;14.00;99.90;;;;;;4988240;28;20437;-65
2023/10/20 11:42:48;;;;;;;5.13;4.63;;;14.00;99.90;;;;;;4987731;28;20984;-65
2023/10/20 11:45:14;;;;;;;5.90;5.30;;;14.00;99.90;;;;;;4989374;28;20951;-65
2023/10/20 11:47:40;;;;;;;6.37;5.77;;;14.00;99.90;;;;;;4987589;28;21203;-64
2023/10/20 11:50:10;;;;;;;4.33;4.00;;;14.00;99.90;;;;;;4989020;28;20434;-65
2023/10/20 11:52:40;;;;;;;3.80;3.50;;;14.10;99.90;;;;;;4986299;28;21282;-65
2023/10/20 11:55:09;;;;;;;4.57;4.17;;;14.10;99.90;;;;;;4988262;28;21247;-65
2023/10/20 11:57:36;;;;;;;6.43;3.57;;;14.10;99.90;;;;;;4980105;28;20426;-64
2023/10/20 12:00:07;;;;;;;4.00;3.70;;;14.10;99.90;;;;;;4989473;28;20423;-65
2023/10/20 12:02:33;;;;;;;3.97;3.60;;;14.10;99.90;;;;;;4987903;28;20458;-64
2023/10/20 12:05:00;;;;;;;4.50;4.10;;;14.10;99.90;;;;;;4988995;28;21335;-64
2023/10/20 12:07:26;;;;;;;4.07;3.67;;;14.00;99.90;;;;;;4988842;28;21012;-65
2023/10/20 12:09:52;;;;;;;3.93;3.50;;;14.00;99.90;;;;;;4988052;28;20870;-65
2023/10/20 12:12:19;;;;;;;3.77;3.47;;;14.00;99.90;;;;;;4988854;28;20441;-65
2023/10/20 12:14:45;;;;;;;3.50;3.20;;;14.00;99.90;;;;;;4987911;28;20439;-65
2023/10/20 12:17:11;;;;;;;4.20;3.80;;;13.90;99.90;;;;;;4988716;28;20460;-65
2023/10/20 12:19:38;;;;;;;4.00;3.70;;;13.80;99.90;;;;;;4989324;28;20549;-64
2023/10/20 12:22:04;;;;;;;3.70;3.40;;;13.80;99.90;;;;;;4989586;28;20236;-65
2023/10/20 12:24:30;;;;;;;3.83;3.53;;;13.80;99.90;;;;;;4988463;28;20435;-64
2023/10/20 12:26:56;;;;;;;3.87;3.57;;;13.70;99.90;;;;;;4988290;28;20422;-65
2023/10/20 12:29:22;;;;;;;3.70;3.40;;;13.70;99.90;;;;;;4988466;28;20474;-64
2023/10/20 12:31:49;;;;;;;3.70;3.40;;;13.80;99.90;;;;;;4987836;28;20434;-64
2023/10/20 12:34:14;;;;;;;3.87;3.57;;;13.80;99.90;;;;;;4987765;28;20199;-64
2023/10/20 12:36:42;;;;;;;3.50;3.20;;;13.70;99.90;;;;;;4987758;28;20917;-64
2023/10/20 12:39:09;;;;;;;3.50;3.20;;;13.80;99.90;;;;;;4988837;28;20198;-64
2023/10/20 12:41:38;;;;;;;3.73;3.43;;;13.80;99.90;;;;;;4989119;28;20525;-65
2023/10/20 12:44:04;;;;;;;3.80;3.40;;;13.70;99.90;;;;;;4988016;28;20453;-65
2023/10/20 12:46:30;;;;;;;4.00;3.70;;;13.70;99.90;;;;;;4989316;28;20450;-65
2023/10/20 12:48:55;;;;;;;3.37;3.17;;;13.80;99.90;;;;;;4988704;28;20422;-64
2023/10/20 12:51:21;;;;;;;3.50;3.30;;;13.80;99.90;;;;;;4989418;28;20233;-65
2023/10/20 12:53:47;;;;;;;5.60;3.33;;;13.80;99.90;;;;;;4990644;28;20219;-64
2023/10/20 12:56:12;;;;;;;3.57;3.27;;;13.90;99.90;;;;;;4991917;28;20196;-65
2023/10/20 12:58:38;;;;;;;4.13;3.73;;;13.90;99.90;;;;;;4992199;28;20183;-65
2023/10/20 13:01:04;;;;;;;4.10;3.80;;;13.90;99.90;;;;;;4991881;28;21009;-65
2023/10/20 13:03:30;;;;;;;3.77;3.47;;;13.80;99.90;;;;;;4991593;28;20237;-65
2023/10/20 13:05:56;;;;;;;4.60;4.20;;;13.70;99.90;;;;;;4992048;28;20529;-66
2023/10/20 13:08:23;;;;;;;4.20;3.90;;;13.60;99.90;;;;;;4991973;28;20499;-65
2023/10/20 13:10:50;;;;;;;4.30;3.90;;;13.50;99.90;;;;;;4991642;28;20443;-65
2023/10/20 13:13:17;;;;;;;4.77;4.37;;;13.60;99.90;;;;;;4991221;28;21238;-65
2023/10/20 13:15:43;;;;;;;4.63;4.30;;;13.60;99.90;;;;;;4991848;28;20447;-65
2023/10/20 13:18:12;;;;;;;4.30;4.00;;;13.70;99.90;;;;;;4991948;28;20441;-65
2023/10/20 13:20:39;;;;;;;4.37;4.07;;;13.70;99.90;;;;;;4991286;28;20469;-65
2023/10/20 13:23:04;;;;;;;4.57;4.17;;;13.70;99.90;;;;;;4990295;28;20454;-65
2023/10/20 13:25:30;;;;;;;4.43;4.10;;;13.70;99.90;;;;;;4992413;28;20517;-65
2023/10/20 13:27:59;;;;;;;4.70;4.30;;;13.70;99.90;;;;;;5007074;28;20183;-65
2023/10/20 13:30:25;;;;;;;4.07;3.77;;;13.70;99.90;;;;;;4992016;28;20195;-65